sensor_id;sensor_type;location;lat;lon;timestamp;temperature;humidity
18611;DHT22;9435;52.122;5.502;2023-06-22T00:01:33;18.10;99.90
18611;DHT22;9435;52.122;5.502;2023-06-22T00:04:00;18.10;99.90
18611;DHT22;9435;52.122;5.502;2023-06-22T00:06:27;18.10;99.90
18611;DHT22;9435;52.122;5.502;2023-06-22T00:08:55;18.00;99.90
18611;DHT22;9435;52.122;5.502;2023-06-22T00:11:22;17.90;99.90
18611;DHT22;9435;52.122;5.502;2023-06-22T00:13:50;17.90;99.90
18611;DHT22;9435;52.122;5.502;2023-06-22T00:16:17;17.80;99.90
18611;DHT22;9435;52.122;5.502;2023-06-22T00:18:45;17.70;99.90
18611;DHT22;9435;52.122;5.502;2023-06-22T00:21:13;17.70;99.90
18611;DHT22;9435;52.122;5.502;2023-06-22T00:23:40;17.80;99.90
18611;DHT22;9435;52.122;5.502;2023-06-22T00:26:07;17.80;99.90
18611;DHT22;9435;52.122;5.502;2023-06-22T00:28:34;17.80;99.90
18611;DHT22;9435;52.122;5.502;2023-06-22T00:31:01;17.70;99.90
18611;DHT22;9435;52.122;5.502;2023-06-22T00:33:28;17.70;99.90
18611;DHT22;9435;52.122;5.502;2023-06-22T00:35:57;17.80;99.90
18611;DHT22;9435;52.122;5.502;2023-06-22T00:38:24;17.80;99.90
18611;DHT22;9435;52.122;5.502;2023-06-22T00:40:51;17.80;99.90
18611;DHT22;9435;52.122;5.502;2023-06-22T00:43:18;17.80;99.90
18611;DHT22;9435;52.122;5.502;2023-06-22T00:45:45;17.80;99.90
18611;DHT22;9435;52.122;5.502;2023-06-22T00:48:13;17.70;99.90
18611;DHT22;9435;52.122;5.502;2023-06-22T00:50:41;17.70;99.90
18611;DHT22;9435;52.122;5.502;2023-06-22T00:53:12;17.60;99.90
18611;DHT22;9435;52.122;5.502;2023-06-22T00:55:42;17.50;99.90
18611;DHT22;9435;52.122;5.502;2023-06-22T00:58:11;17.40;99.90
18611;DHT22;9435;52.122;5.502;2023-06-22T01:00:39;17.40;99.90
18611;DHT22;9435;52.122;5.502;2023-06-22T01:03:07;17.40;99.90
18611;DHT22;9435;52.122;5.502;2023-06-22T01:05:35;17.40;99.90
18611;DHT22;9435;52.122;5.502;2023-06-22T01:08:08;17.40;99.90
18611;DHT22;9435;52.122;5.502;2023-06-22T01:10:44;17.40;99.90
18611;DHT22;9435;52.122;5.502;2023-06-22T01:13:18;17.30;99.90
18611;DHT22;9435;52.122;5.502;2023-06-22T01:15:53;17.40;99.90
18611;DHT22;9435;52.122;5.502;2023-06-22T01:18:23;17.40;99.90
18611;DHT22;9435;52.122;5.502;2023-06-22T01:20:53;17.20;99.90
18611;DHT22;9435;52.122;5.502;2023-06-22T01:23:28;17.20;99.90
18611;DHT22;9435;52.122;5.502;2023-06-22T01:26:05;17.10;99.90
18611;DHT22;9435;52.122;5.502;2023-06-22T01:28:42;17.10;99.90
18611;DHT22;9435;52.122;5.502;2023-06-22T01:31:13;17.10;99.90
18611;DHT22;9435;52.122;5.502;2023-06-22T01:33:43;17.10;99.90
18611;DHT22;9435;52.122;5.502;2023-06-22T01:36:10;17.10;99.90
18611;DHT22;9435;52.122;5.502;2023-06-22T01:38:39;17.00;99.90
18611;DHT22;9435;52.122;5.502;2023-06-22T01:41:06;17.00;99.90
18611;DHT22;9435;52.122;5.502;2023-06-22T01:43:33;17.00;99.90
18611;DHT22;9435;52.122;5.502;2023-06-22T01:46:04;17.00;99.90
18611;DHT22;9435;52.122;5.502;2023-06-22T01:48:32;17.00;99.90
18611;DHT22;9435;52.122;5.502;2023-06-22T01:50:59;17.00;99.90
18611;DHT22;9435;52.122;5.502;2023-06-22T01:53:26;16.90;99.90
18611;DHT22;9435;52.122;5.502;2023-06-22T01:55:53;16.90;99.90
18611;DHT22;9435;52.122;5.502;2023-06-22T01:58:24;16.80;99.90
18611;DHT22;9435;52.122;5.502;2023-06-22T02:00:56;16.80;99.90
18611;DHT22;9435;52.122;5.502;2023-06-22T02:03:30;16.80;99.90
18611;DHT22;9435;52.122;5.502;2023-06-22T02:06:03;16.70;99.90
18611;DHT22;9435;52.122;5.502;2023-06-22T02:08:34;16.70;99.90
18611;DHT22;9435;52.122;5.502;2023-06-22T02:11:02;16.60;99.90
18611;DHT22;9435;52.122;5.502;2023-06-22T02:13:30;16.60;99.90
18611;DHT22;9435;52.122;5.502;2023-06-22T02:15:59;16.60;99.90
18611;DHT22;9435;52.122;5.502;2023-06-22T02:18:28;16.60;99.90
18611;DHT22;9435;52.122;5.502;2023-06-22T02:20:55;16.60;99.90
18611;DHT22;9435;52.122;5.502;2023-06-22T02:23:22;16.50;99.90
18611;DHT22;9435;52.122;5.502;2023-06-22T02:25:49;16.50;99.90
18611;DHT22;9435;52.122;5.502;2023-06-22T02:28:17;16.50;99.90
18611;DHT22;9435;52.122;5.502;2023-06-22T02:30:44;16.40;99.90
18611;DHT22;9435;52.122;5.502;2023-06-22T02:33:11;16.40;99.90
18611;DHT22;9435;52.122;5.502;2023-06-22T02:35:40;16.20;99.90
18611;DHT22;9435;52.122;5.502;2023-06-22T02:38:11;16.10;99.90
18611;DHT22;9435;52.122;5.502;2023-06-22T02:40:38;16.20;99.90
18611;DHT22;9435;52.122;5.502;2023-06-22T02:43:05;16.10;99.90
18611;DHT22;9435;52.122;5.502;2023-06-22T02:45:32;16.10;99.90
18611;DHT22;9435;52.122;5.502;2023-06-22T02:47:59;16.10;99.90
18611;DHT22;9435;52.122;5.502;2023-06-22T02:50:27;16.10;99.90
18611;DHT22;9435;52.122;5.502;2023-06-22T02:52:55;16.10;99.90
18611;DHT22;9435;52.122;5.502;2023-06-22T02:55:24;16.10;99.90
18611;DHT22;9435;52.122;5.502;2023-06-22T02:57:51;16.10;99.90
18611;DHT22;9435;52.122;5.502;2023-06-22T03:00:19;16.00;99.90
18611;DHT22;9435;52.122;5.502;2023-06-22T03:02:48;15.90;99.90
18611;DHT22;9435;52.122;5.502;2023-06-22T03:05:15;16.00;99.90
18611;DHT22;9435;52.122;5.502;2023-06-22T03:07:43;15.90;99.90
18611;DHT22;9435;52.122;5.502;2023-06-22T03:10:13;15.90;99.90
18611;DHT22;9435;52.122;5.502;2023-06-22T03:12:41;15.90;99.90
18611;DHT22;9435;52.122;5.502;2023-06-22T03:15:10;15.90;99.90
18611;DHT22;9435;52.122;5.502;2023-06-22T03:17:38;15.90;99.90
18611;DHT22;9435;52.122;5.502;2023-06-22T03:20:06;15.90;99.90
18611;DHT22;9435;52.122;5.502;2023-06-22T03:22:35;15.90;99.90
18611;DHT22;9435;52.122;5.502;2023-06-22T03:25:02;15.80;99.90
18611;DHT22;9435;52.122;5.502;2023-06-22T03:27:31;15.80;99.90
18611;DHT22;9435;52.122;5.502;2023-06-22T03:29:58;15.80;99.90
18611;DHT22;9435;52.122;5.502;2023-06-22T03:32:25;15.80;99.90
18611;DHT22;9435;52.122;5.502;2023-06-22T03:34:53;15.80;99.90
18611;DHT22;9435;52.122;5.502;2023-06-22T03:37:24;15.70;99.90
18611;DHT22;9435;52.122;5.502;2023-06-22T03:39:51;15.60;99.90
18611;DHT22;9435;52.122;5.502;2023-06-22T03:42:19;15.60;99.90
18611;DHT22;9435;52.122;5.502;2023-06-22T03:44:47;15.50;99.90
18611;DHT22;9435;52.122;5.502;2023-06-22T03:47:14;15.50;99.90
18611;DHT22;9435;52.122;5.502;2023-06-22T03:49:41;15.50;99.90
18611;DHT22;9435;52.122;5.502;2023-06-22T03:52:09;15.50;99.90
18611;DHT22;9435;52.122;5.502;2023-06-22T03:54:36;15.50;99.90
18611;DHT22;9435;52.122;5.502;2023-06-22T03:57:04;15.50;99.90
18611;DHT22;9435;52.122;5.502;2023-06-22T03:59:31;15.60;99.90
18611;DHT22;9435;52.122;5.502;2023-06-22T04:02:01;15.60;99.90
18611;DHT22;9435;52.122;5.502;2023-06-22T04:04:28;15.60;99.90
18611;DHT22;9435;52.122;5.502;2023-06-22T04:06:55;15.60;99.90
18611;DHT22;9435;52.122;5.502;2023-06-22T04:09:22;15.70;99.90
18611;DHT22;9435;52.122;5.502;2023-06-22T04:11:49;15.70;99.90
18611;DHT22;9435;52.122;5.502;2023-06-22T04:14:16;15.70;99.90
18611;DHT22;9435;52.122;5.502;2023-06-22T04:16:43;15.80;99.90
18611;DHT22;9435;52.122;5.502;2023-06-22T04:19:12;15.80;99.90
18611;DHT22;9435;52.122;5.502;2023-06-22T04:21:42;15.90;99.90
18611;DHT22;9435;52.122;5.502;2023-06-22T04:24:10;16.10;99.90
18611;DHT22;9435;52.122;5.502;2023-06-22T04:26:37;16.10;99.90
18611;DHT22;9435;52.122;5.502;2023-06-22T04:29:07;16.20;99.90
18611;DHT22;9435;52.122;5.502;2023-06-22T04:31:35;16.30;99.90
18611;DHT22;9435;52.122;5.502;2023-06-22T04:34:03;16.40;99.90
18611;DHT22;9435;52.122;5.502;2023-06-22T04:36:34;16.60;99.90
18611;DHT22;9435;52.122;5.502;2023-06-22T04:39:05;16.70;99.90
18611;DHT22;9435;52.122;5.502;2023-06-22T04:41:35;16.70;99.90
18611;DHT22;9435;52.122;5.502;2023-06-22T04:44:09;16.70;99.90
18611;DHT22;9435;52.122;5.502;2023-06-22T04:46:37;16.70;99.90
18611;DHT22;9435;52.122;5.502;2023-06-22T04:49:07;16.80;99.90
18611;DHT22;9435;52.122;5.502;2023-06-22T04:51:42;16.90;99.90
18611;DHT22;9435;52.122;5.502;2023-06-22T04:54:09;17.00;99.90
18611;DHT22;9435;52.122;5.502;2023-06-22T04:56:37;17.00;99.90
18611;DHT22;9435;52.122;5.502;2023-06-22T04:59:07;17.20;99.90
18611;DHT22;9435;52.122;5.502;2023-06-22T05:01:38;17.30;99.90
18611;DHT22;9435;52.122;5.502;2023-06-22T05:04:05;17.50;99.90
18611;DHT22;9435;52.122;5.502;2023-06-22T05:06:33;17.50;99.90
18611;DHT22;9435;52.122;5.502;2023-06-22T05:09:02;17.60;99.90
18611;DHT22;9435;52.122;5.502;2023-06-22T05:11:30;17.60;99.90
18611;DHT22;9435;52.122;5.502;2023-06-22T05:13:58;17.60;99.90
18611;DHT22;9435;52.122;5.502;2023-06-22T05:16:25;17.70;99.90
18611;DHT22;9435;52.122;5.502;2023-06-22T05:18:53;17.70;99.90
18611;DHT22;9435;52.122;5.502;2023-06-22T05:21:25;17.80;99.90
18611;DHT22;9435;52.122;5.502;2023-06-22T05:23:53;17.90;99.90
18611;DHT22;9435;52.122;5.502;2023-06-22T05:26:22;18.00;99.90
18611;DHT22;9435;52.122;5.502;2023-06-22T05:28:50;18.10;99.90
18611;DHT22;9435;52.122;5.502;2023-06-22T05:31:17;18.20;99.90
18611;DHT22;9435;52.122;5.502;2023-06-22T05:33:46;18.30;99.90
18611;DHT22;9435;52.122;5.502;2023-06-22T05:36:14;18.50;99.90
18611;DHT22;9435;52.122;5.502;2023-06-22T05:38:42;18.60;99.90
18611;DHT22;9435;52.122;5.502;2023-06-22T05:41:09;18.80;99.90
18611;DHT22;9435;52.122;5.502;2023-06-22T05:43:37;18.90;99.90
18611;DHT22;9435;52.122;5.502;2023-06-22T05:46:05;19.00;99.90
18611;DHT22;9435;52.122;5.502;2023-06-22T05:48:32;18.90;99.90
18611;DHT22;9435;52.122;5.502;2023-06-22T05:50:59;19.00;99.90
18611;DHT22;9435;52.122;5.502;2023-06-22T05:53:26;18.90;99.90
18611;DHT22;9435;52.122;5.502;2023-06-22T05:55:53;19.00;99.90
18611;DHT22;9435;52.122;5.502;2023-06-22T05:58:20;19.00;99.90
18611;DHT22;9435;52.122;5.502;2023-06-22T06:00:49;19.20;99.90
18611;DHT22;9435;52.122;5.502;2023-06-22T06:03:16;19.40;99.90
18611;DHT22;9435;52.122;5.502;2023-06-22T06:05:44;19.60;99.90
18611;DHT22;9435;52.122;5.502;2023-06-22T06:08:11;20.00;99.90
18611;DHT22;9435;52.122;5.502;2023-06-22T06:10:38;20.10;99.90
18611;DHT22;9435;52.122;5.502;2023-06-22T06:13:09;20.20;99.90
18611;DHT22;9435;52.122;5.502;2023-06-22T06:15:36;20.40;99.90
18611;DHT22;9435;52.122;5.502;2023-06-22T06:18:05;20.40;99.90
18611;DHT22;9435;52.122;5.502;2023-06-22T06:20:37;20.50;99.90
18611;DHT22;9435;52.122;5.502;2023-06-22T06:23:15;20.70;99.90
18611;DHT22;9435;52.122;5.502;2023-06-22T06:25:42;20.80;99.90
18611;DHT22;9435;52.122;5.502;2023-06-22T06:28:10;20.90;99.90
18611;DHT22;9435;52.122;5.502;2023-06-22T06:30:37;21.00;99.90
18611;DHT22;9435;52.122;5.502;2023-06-22T06:33:05;21.10;99.90
18611;DHT22;9435;52.122;5.502;2023-06-22T06:35:34;21.20;99.90
18611;DHT22;9435;52.122;5.502;2023-06-22T06:38:01;21.30;99.90
18611;DHT22;9435;52.122;5.502;2023-06-22T06:40:29;21.40;99.90
18611;DHT22;9435;52.122;5.502;2023-06-22T06:42:56;21.40;99.90
18611;DHT22;9435;52.122;5.502;2023-06-22T06:45:25;21.50;99.90
18611;DHT22;9435;52.122;5.502;2023-06-22T06:47:54;21.60;99.90
18611;DHT22;9435;52.122;5.502;2023-06-22T06:50:23;22.10;99.90
18611;DHT22;9435;52.122;5.502;2023-06-22T06:52:50;21.90;99.90
18611;DHT22;9435;52.122;5.502;2023-06-22T06:55:17;21.90;99.90
18611;DHT22;9435;52.122;5.502;2023-06-22T06:57:45;22.00;99.90
18611;DHT22;9435;52.122;5.502;2023-06-22T07:00:14;22.10;99.90
18611;DHT22;9435;52.122;5.502;2023-06-22T07:02:43;22.00;99.90
18611;DHT22;9435;52.122;5.502;2023-06-22T07:05:11;22.00;99.90
18611;DHT22;9435;52.122;5.502;2023-06-22T07:07:40;22.10;99.90
18611;DHT22;9435;52.122;5.502;2023-06-22T07:10:08;22.30;99.90
18611;DHT22;9435;52.122;5.502;2023-06-22T07:12:36;22.20;99.90
18611;DHT22;9435;52.122;5.502;2023-06-22T07:15:08;22.30;99.90
18611;DHT22;9435;52.122;5.502;2023-06-22T07:17:36;22.20;99.90
18611;DHT22;9435;52.122;5.502;2023-06-22T07:20:07;22.70;99.90
18611;DHT22;9435;52.122;5.502;2023-06-22T07:22:36;22.80;99.90
18611;DHT22;9435;52.122;5.502;2023-06-22T07:25:05;23.00;99.90
18611;DHT22;9435;52.122;5.502;2023-06-22T07:27:36;23.10;99.90
18611;DHT22;9435;52.122;5.502;2023-06-22T07:30:06;23.40;99.90
18611;DHT22;9435;52.122;5.502;2023-06-22T07:32:34;23.60;99.90
18611;DHT22;9435;52.122;5.502;2023-06-22T07:35:01;23.60;99.90
18611;DHT22;9435;52.122;5.502;2023-06-22T07:37:28;23.50;99.90
18611;DHT22;9435;52.122;5.502;2023-06-22T07:39:56;23.30;99.90
18611;DHT22;9435;52.122;5.502;2023-06-22T07:42:26;23.70;99.90
18611;DHT22;9435;52.122;5.502;2023-06-22T07:44:53;23.70;99.90
18611;DHT22;9435;52.122;5.502;2023-06-22T07:47:21;23.80;99.90
18611;DHT22;9435;52.122;5.502;2023-06-22T07:49:51;23.40;99.90
18611;DHT22;9435;52.122;5.502;2023-06-22T07:52:20;23.20;99.90
18611;DHT22;9435;52.122;5.502;2023-06-22T07:54:47;23.50;99.90
18611;DHT22;9435;52.122;5.502;2023-06-22T07:57:15;23.70;99.90
18611;DHT22;9435;52.122;5.502;2023-06-22T07:59:43;23.80;99.90
18611;DHT22;9435;52.122;5.502;2023-06-22T08:02:10;23.70;99.90
18611;DHT22;9435;52.122;5.502;2023-06-22T08:04:38;24.20;99.90
18611;DHT22;9435;52.122;5.502;2023-06-22T08:07:05;24.40;99.90
18611;DHT22;9435;52.122;5.502;2023-06-22T08:09:32;24.10;99.90
18611;DHT22;9435;52.122;5.502;2023-06-22T08:12:00;24.40;99.90
18611;DHT22;9435;52.122;5.502;2023-06-22T08:14:27;24.40;99.90
18611;DHT22;9435;52.122;5.502;2023-06-22T08:16:56;24.40;99.90
18611;DHT22;9435;52.122;5.502;2023-06-22T08:19:23;24.50;99.90
18611;DHT22;9435;52.122;5.502;2023-06-22T08:21:50;24.40;99.90
18611;DHT22;9435;52.122;5.502;2023-06-22T08:24:17;24.90;99.90
18611;DHT22;9435;52.122;5.502;2023-06-22T08:26:45;25.10;99.90
18611;DHT22;9435;52.122;5.502;2023-06-22T08:29:12;25.40;99.90
18611;DHT22;9435;52.122;5.502;2023-06-22T08:31:39;25.30;99.90
18611;DHT22;9435;52.122;5.502;2023-06-22T08:34:08;25.40;99.90
18611;DHT22;9435;52.122;5.502;2023-06-22T08:36:35;25.30;99.90
18611;DHT22;9435;52.122;5.502;2023-06-22T08:39:17;25.40;99.90
18611;DHT22;9435;52.122;5.502;2023-06-22T08:41:44;25.40;99.90
18611;DHT22;9435;52.122;5.502;2023-06-22T08:44:11;25.30;99.90
18611;DHT22;9435;52.122;5.502;2023-06-22T08:46:39;25.10;99.90
18611;DHT22;9435;52.122;5.502;2023-06-22T08:49:08;24.90;99.90
18611;DHT22;9435;52.122;5.502;2023-06-22T08:51:36;25.10;99.90
18611;DHT22;9435;52.122;5.502;2023-06-22T08:54:03;25.30;99.90
18611;DHT22;9435;52.122;5.502;2023-06-22T08:56:30;25.60;99.90
18611;DHT22;9435;52.122;5.502;2023-06-22T08:58:58;25.50;99.90
18611;DHT22;9435;52.122;5.502;2023-06-22T09:01:28;25.60;99.90
18611;DHT22;9435;52.122;5.502;2023-06-22T09:03:55;25.60;99.90
18611;DHT22;9435;52.122;5.502;2023-06-22T09:06:24;25.60;99.90
18611;DHT22;9435;52.122;5.502;2023-06-22T09:08:52;25.50;99.90
18611;DHT22;9435;52.122;5.502;2023-06-22T09:11:19;25.20;99.90
18611;DHT22;9435;52.122;5.502;2023-06-22T09:13:46;25.40;99.90
18611;DHT22;9435;52.122;5.502;2023-06-22T09:16:13;25.20;99.90
18611;DHT22;9435;52.122;5.502;2023-06-22T09:18:40;25.40;99.90
18611;DHT22;9435;52.122;5.502;2023-06-22T09:21:07;25.50;99.90
18611;DHT22;9435;52.122;5.502;2023-06-22T09:23:36;25.60;99.90
18611;DHT22;9435;52.122;5.502;2023-06-22T09:26:03;25.70;99.90
18611;DHT22;9435;52.122;5.502;2023-06-22T09:28:30;25.70;99.90
18611;DHT22;9435;52.122;5.502;2023-06-22T09:30:59;25.60;99.90
18611;DHT22;9435;52.122;5.502;2023-06-22T09:33:26;25.60;99.90
18611;DHT22;9435;52.122;5.502;2023-06-22T09:35:55;25.90;99.90
18611;DHT22;9435;52.122;5.502;2023-06-22T09:38:22;26.00;99.90
18611;DHT22;9435;52.122;5.502;2023-06-22T09:40:51;26.00;99.90
18611;DHT22;9435;52.122;5.502;2023-06-22T09:43:18;26.10;99.90
18611;DHT22;9435;52.122;5.502;2023-06-22T09:45:45;26.20;99.90
18611;DHT22;9435;52.122;5.502;2023-06-22T09:48:12;25.70;99.90
18611;DHT22;9435;52.122;5.502;2023-06-22T09:50:41;25.90;99.90
18611;DHT22;9435;52.122;5.502;2023-06-22T09:53:08;25.90;99.90
18611;DHT22;9435;52.122;5.502;2023-06-22T09:55:35;25.90;99.90
18611;DHT22;9435;52.122;5.502;2023-06-22T09:58:04;25.80;99.90
18611;DHT22;9435;52.122;5.502;2023-06-22T10:00:31;25.60;99.90
18611;DHT22;9435;52.122;5.502;2023-06-22T10:02:58;25.80;99.90
18611;DHT22;9435;52.122;5.502;2023-06-22T10:05:25;25.60;99.90
18611;DHT22;9435;52.122;5.502;2023-06-22T10:07:52;25.20;99.90
18611;DHT22;9435;52.122;5.502;2023-06-22T10:10:19;25.00;99.90
18611;DHT22;9435;52.122;5.502;2023-06-22T10:12:47;24.90;99.90
18611;DHT22;9435;52.122;5.502;2023-06-22T10:15:16;24.70;99.90
18611;DHT22;9435;52.122;5.502;2023-06-22T10:17:43;24.60;99.90
18611;DHT22;9435;52.122;5.502;2023-06-22T10:20:11;24.60;99.90
18611;DHT22;9435;52.122;5.502;2023-06-22T10:22:39;24.60;99.90
18611;DHT22;9435;52.122;5.502;2023-06-22T10:25:07;24.50;99.90
18611;DHT22;9435;52.122;5.502;2023-06-22T10:27:34;24.30;99.90
18611;DHT22;9435;52.122;5.502;2023-06-22T10:30:02;24.30;99.90
18611;DHT22;9435;52.122;5.502;2023-06-22T10:32:32;24.30;99.90
18611;DHT22;9435;52.122;5.502;2023-06-22T10:34:59;24.30;99.90
18611;DHT22;9435;52.122;5.502;2023-06-22T10:37:26;24.30;99.90
18611;DHT22;9435;52.122;5.502;2023-06-22T10:39:53;24.40;99.90
18611;DHT22;9435;52.122;5.502;2023-06-22T10:42:20;24.30;99.90
18611;DHT22;9435;52.122;5.502;2023-06-22T10:44:47;24.40;99.90
18611;DHT22;9435;52.122;5.502;2023-06-22T10:47:15;24.30;99.90
18611;DHT22;9435;52.122;5.502;2023-06-22T10:49:43;24.30;99.90
18611;DHT22;9435;52.122;5.502;2023-06-22T10:52:10;24.30;99.90
18611;DHT22;9435;52.122;5.502;2023-06-22T10:54:38;24.40;99.90
18611;DHT22;9435;52.122;5.502;2023-06-22T10:57:05;24.50;99.90
18611;DHT22;9435;52.122;5.502;2023-06-22T10:59:33;24.50;99.90
18611;DHT22;9435;52.122;5.502;2023-06-22T11:02:00;24.60;99.90
18611;DHT22;9435;52.122;5.502;2023-06-22T11:04:28;24.70;99.90
18611;DHT22;9435;52.122;5.502;2023-06-22T11:06:56;24.70;99.90
18611;DHT22;9435;52.122;5.502;2023-06-22T11:09:23;24.70;99.90
18611;DHT22;9435;52.122;5.502;2023-06-22T11:11:52;24.90;99.90
18611;DHT22;9435;52.122;5.502;2023-06-22T11:14:20;24.90;99.90
18611;DHT22;9435;52.122;5.502;2023-06-22T11:16:47;24.80;99.90
18611;DHT22;9435;52.122;5.502;2023-06-22T11:19:14;25.00;99.90
18611;DHT22;9435;52.122;5.502;2023-06-22T11:21:41;24.90;99.90
18611;DHT22;9435;52.122;5.502;2023-06-22T11:24:10;25.00;99.90
18611;DHT22;9435;52.122;5.502;2023-06-22T11:26:37;24.90;99.90
18611;DHT22;9435;52.122;5.502;2023-06-22T11:29:04;24.90;99.90
18611;DHT22;9435;52.122;5.502;2023-06-22T11:31:31;25.00;99.90
18611;DHT22;9435;52.122;5.502;2023-06-22T11:33:58;24.90;99.90
18611;DHT22;9435;52.122;5.502;2023-06-22T11:36:26;24.90;99.90
18611;DHT22;9435;52.122;5.502;2023-06-22T11:38:55;24.80;99.90
18611;DHT22;9435;52.122;5.502;2023-06-22T11:41:23;24.80;99.90
18611;DHT22;9435;52.122;5.502;2023-06-22T11:43:50;24.70;99.90
18611;DHT22;9435;52.122;5.502;2023-06-22T11:46:18;24.90;99.90
18611;DHT22;9435;52.122;5.502;2023-06-22T11:48:45;24.90;99.90
18611;DHT22;9435;52.122;5.502;2023-06-22T11:51:12;25.00;99.90
18611;DHT22;9435;52.122;5.502;2023-06-22T11:53:39;25.00;99.90
18611;DHT22;9435;52.122;5.502;2023-06-22T11:56:07;25.10;99.90
18611;DHT22;9435;52.122;5.502;2023-06-22T11:58:36;25.00;99.90
18611;DHT22;9435;52.122;5.502;2023-06-22T12:01:03;24.90;99.90
18611;DHT22;9435;52.122;5.502;2023-06-22T12:03:30;24.80;99.90
18611;DHT22;9435;52.122;5.502;2023-06-22T12:05:58;24.70;99.90
18611;DHT22;9435;52.122;5.502;2023-06-22T12:08:25;24.70;99.90
18611;DHT22;9435;52.122;5.502;2023-06-22T12:10:52;24.60;99.90
18611;DHT22;9435;52.122;5.502;2023-06-22T12:13:19;24.50;99.90
18611;DHT22;9435;52.122;5.502;2023-06-22T12:15:48;24.60;99.90
18611;DHT22;9435;52.122;5.502;2023-06-22T12:18:17;24.20;99.90
18611;DHT22;9435;52.122;5.502;2023-06-22T12:20:46;24.10;99.90
18611;DHT22;9435;52.122;5.502;2023-06-22T12:23:15;24.00;99.90
18611;DHT22;9435;52.122;5.502;2023-06-22T12:25:44;24.00;99.90
18611;DHT22;9435;52.122;5.502;2023-06-22T12:28:11;23.80;99.90
18611;DHT22;9435;52.122;5.502;2023-06-22T12:30:39;23.80;99.90
18611;DHT22;9435;52.122;5.502;2023-06-22T12:33:07;23.50;99.90
18611;DHT22;9435;52.122;5.502;2023-06-22T12:35:34;23.50;99.90
18611;DHT22;9435;52.122;5.502;2023-06-22T12:38:02;23.40;99.90
18611;DHT22;9435;52.122;5.502;2023-06-22T12:40:32;23.30;99.90
18611;DHT22;9435;52.122;5.502;2023-06-22T12:42:59;23.30;99.90
18611;DHT22;9435;52.122;5.502;2023-06-22T12:45:27;23.50;99.90
18611;DHT22;9435;52.122;5.502;2023-06-22T12:47:59;23.40;99.90
18611;DHT22;9435;52.122;5.502;2023-06-22T12:50:28;23.50;99.90
18611;DHT22;9435;52.122;5.502;2023-06-22T12:52:56;23.60;99.90
18611;DHT22;9435;52.122;5.502;2023-06-22T12:55:23;23.40;99.90
18611;DHT22;9435;52.122;5.502;2023-06-22T12:57:51;23.40;99.90
18611;DHT22;9435;52.122;5.502;2023-06-22T13:00:18;23.40;99.90
18611;DHT22;9435;52.122;5.502;2023-06-22T13:02:45;23.60;99.90
18611;DHT22;9435;52.122;5.502;2023-06-22T13:05:13;23.60;99.90
18611;DHT22;9435;52.122;5.502;2023-06-22T13:07:41;23.70;99.90
18611;DHT22;9435;52.122;5.502;2023-06-22T13:10:09;23.70;99.90
18611;DHT22;9435;52.122;5.502;2023-06-22T13:12:36;23.80;99.90
18611;DHT22;9435;52.122;5.502;2023-06-22T13:15:04;23.80;99.90
18611;DHT22;9435;52.122;5.502;2023-06-22T13:17:31;24.00;99.90
18611;DHT22;9435;52.122;5.502;2023-06-22T13:19:58;24.00;99.90
18611;DHT22;9435;52.122;5.502;2023-06-22T13:22:29;24.10;99.90
18611;DHT22;9435;52.122;5.502;2023-06-22T13:24:59;24.00;99.90
18611;DHT22;9435;52.122;5.502;2023-06-22T13:27:26;23.80;99.90
18611;DHT22;9435;52.122;5.502;2023-06-22T13:29:53;23.70;99.90
18611;DHT22;9435;52.122;5.502;2023-06-22T13:32:21;23.80;99.90
18611;DHT22;9435;52.122;5.502;2023-06-22T13:34:48;23.80;99.90
18611;DHT22;9435;52.122;5.502;2023-06-22T13:37:15;23.70;99.90
18611;DHT22;9435;52.122;5.502;2023-06-22T13:39:42;23.70;99.90
18611;DHT22;9435;52.122;5.502;2023-06-22T13:42:11;23.80;99.90
18611;DHT22;9435;52.122;5.502;2023-06-22T13:44:38;23.90;99.90
18611;DHT22;9435;52.122;5.502;2023-06-22T13:47:06;23.70;99.90
18611;DHT22;9435;52.122;5.502;2023-06-22T13:49:33;23.50;99.90
18611;DHT22;9435;52.122;5.502;2023-06-22T13:52:00;23.30;99.90
18611;DHT22;9435;52.122;5.502;2023-06-22T13:54:29;23.30;99.90
18611;DHT22;9435;52.122;5.502;2023-06-22T13:56:56;23.20;99.90
18611;DHT22;9435;52.122;5.502;2023-06-22T13:59:24;22.90;99.90
18611;DHT22;9435;52.122;5.502;2023-06-22T14:01:53;22.70;99.90
18611;DHT22;9435;52.122;5.502;2023-06-22T14:04:22;22.60;99.90
18611;DHT22;9435;52.122;5.502;2023-06-22T14:06:50;22.60;99.90
18611;DHT22;9435;52.122;5.502;2023-06-22T14:09:17;22.60;99.90
18611;DHT22;9435;52.122;5.502;2023-06-22T14:11:44;22.60;99.90
18611;DHT22;9435;52.122;5.502;2023-06-22T14:14:11;22.60;99.90
18611;DHT22;9435;52.122;5.502;2023-06-22T14:16:39;22.60;99.90
18611;DHT22;9435;52.122;5.502;2023-06-22T14:19:06;22.70;99.90
18611;DHT22;9435;52.122;5.502;2023-06-22T14:21:34;22.60;99.90
18611;DHT22;9435;52.122;5.502;2023-06-22T14:24:01;22.70;99.90
18611;DHT22;9435;52.122;5.502;2023-06-22T14:26:28;22.50;99.90
18611;DHT22;9435;52.122;5.502;2023-06-22T14:28:55;22.40;99.90
18611;DHT22;9435;52.122;5.502;2023-06-22T14:31:22;22.30;99.90
18611;DHT22;9435;52.122;5.502;2023-06-22T14:33:51;22.40;99.90
18611;DHT22;9435;52.122;5.502;2023-06-22T14:36:18;22.30;99.90
18611;DHT22;9435;52.122;5.502;2023-06-22T14:38:45;22.20;99.90
18611;DHT22;9435;52.122;5.502;2023-06-22T14:41:12;22.10;99.90
18611;DHT22;9435;52.122;5.502;2023-06-22T14:43:44;22.00;99.90
18611;DHT22;9435;52.122;5.502;2023-06-22T14:46:12;21.90;99.90
18611;DHT22;9435;52.122;5.502;2023-06-22T14:48:40;21.70;99.90
18611;DHT22;9435;52.122;5.502;2023-06-22T14:51:08;21.70;99.90
18611;DHT22;9435;52.122;5.502;2023-06-22T14:53:35;21.40;99.90
18611;DHT22;9435;52.122;5.502;2023-06-22T14:56:03;21.20;99.90
18611;DHT22;9435;52.122;5.502;2023-06-22T14:58:31;21.10;99.90
18611;DHT22;9435;52.122;5.502;2023-06-22T15:00:59;21.10;99.90
18611;DHT22;9435;52.122;5.502;2023-06-22T15:03:27;20.90;99.90
18611;DHT22;9435;52.122;5.502;2023-06-22T15:05:56;20.80;99.90
18611;DHT22;9435;52.122;5.502;2023-06-22T15:08:25;20.70;99.90
18611;DHT22;9435;52.122;5.502;2023-06-22T15:10:53;20.50;99.90
18611;DHT22;9435;52.122;5.502;2023-06-22T15:13:20;20.40;99.90
18611;DHT22;9435;52.122;5.502;2023-06-22T15:15:48;20.40;99.90
18611;DHT22;9435;52.122;5.502;2023-06-22T15:18:16;20.30;99.90
18611;DHT22;9435;52.122;5.502;2023-06-22T15:20:43;20.30;99.90
18611;DHT22;9435;52.122;5.502;2023-06-22T15:23:11;20.20;99.90
18611;DHT22;9435;52.122;5.502;2023-06-22T15:25:40;20.10;99.90
18611;DHT22;9435;52.122;5.502;2023-06-22T15:28:08;20.20;99.90
18611;DHT22;9435;52.122;5.502;2023-06-22T15:30:35;20.10;99.90
18611;DHT22;9435;52.122;5.502;2023-06-22T15:33:02;20.10;99.90
18611;DHT22;9435;52.122;5.502;2023-06-22T15:35:29;20.10;99.90
18611;DHT22;9435;52.122;5.502;2023-06-22T15:37:57;20.00;99.90
18611;DHT22;9435;52.122;5.502;2023-06-22T15:40:25;20.00;99.90
18611;DHT22;9435;52.122;5.502;2023-06-22T15:42:53;20.00;99.90
18611;DHT22;9435;52.122;5.502;2023-06-22T15:45:20;20.00;99.90
18611;DHT22;9435;52.122;5.502;2023-06-22T15:47:48;20.00;99.90
18611;DHT22;9435;52.122;5.502;2023-06-22T15:50:15;20.00;99.90